createdAt,value
2017-08-15T00:00:03.806Z,14.3
2017-08-15T00:01:05.462Z,13.1
2017-08-15T00:02:07.122Z,10.5
2017-08-15T00:03:08.779Z,10.9
2017-08-15T00:04:10.447Z,10.6
2017-08-15T00:05:12.810Z,10.4
2017-08-15T00:06:14.472Z,8.1
2017-08-15T00:07:16.983Z,8.6
2017-08-15T00:08:18.643Z,13.3
2017-08-15T00:09:20.299Z,10.8
2017-08-15T00:10:21.978Z,10.2
2017-08-15T00:11:23.651Z,11.1
2017-08-15T00:12:25.304Z,14.0
2017-08-15T00:13:26.958Z,9.6
2017-08-15T00:14:28.616Z,8.6
2017-08-15T00:15:30.270Z,10.3
2017-08-15T00:16:31.938Z,12.4
2017-08-15T00:17:33.597Z,10.4
2017-08-15T00:18:35.261Z,14.3
2017-08-15T00:19:36.927Z,12.7
2017-08-15T00:20:38.591Z,10.1
2017-08-15T00:21:40.252Z,16.3
2017-08-15T00:22:41.909Z,10.3
2017-08-15T00:23:43.565Z,7.8
2017-08-15T00:24:45.225Z,11.7
2017-08-15T00:25:46.884Z,10.6
2017-08-15T00:26:48.537Z,11.2
2017-08-15T00:27:50.197Z,11.5
2017-08-15T00:28:51.863Z,11.1
2017-08-15T00:29:53.515Z,14.7
2017-08-15T00:30:55.175Z,9.9
2017-08-15T00:31:56.833Z,9.4
2017-08-15T00:32:58.492Z,12.6
2017-08-15T00:34:00.163Z,12.3
2017-08-15T00:35:01.819Z,11.4
2017-08-15T00:36:03.480Z,13.9
2017-08-15T00:37:05.147Z,12.8
2017-08-15T00:38:06.808Z,9.3
2017-08-15T00:39:08.487Z,10.0
2017-08-15T00:40:10.150Z,8.9
2017-08-15T00:41:11.809Z,12.8
2017-08-15T00:42:13.473Z,8.6
2017-08-15T00:43:15.124Z,9.6
2017-08-15T00:44:16.783Z,12.5
2017-08-15T00:45:18.433Z,9.7
2017-08-15T00:46:20.093Z,13.6
2017-08-15T00:47:21.752Z,11.3
2017-08-15T00:48:23.406Z,12.6
2017-08-15T00:49:25.058Z,8.4
2017-08-15T00:50:26.714Z,11.7
2017-08-15T00:51:28.373Z,11.9
2017-08-15T00:52:30.031Z,9.1
2017-08-15T00:53:31.697Z,9.0
2017-08-15T00:54:33.414Z,11.4
2017-08-15T00:55:35.080Z,11.9
2017-08-15T00:56:36.752Z,11.5
2017-08-15T00:57:38.406Z,10.2
2017-08-15T00:58:40.064Z,10.4
2017-08-15T00:59:41.726Z,11.1
2017-08-15T01:00:43.377Z,12.5
2017-08-15T01:01:45.042Z,10.5
2017-08-15T01:02:46.701Z,11.5
2017-08-15T01:03:48.365Z,9.1
2017-08-15T01:04:50.025Z,9.7
2017-08-15T01:05:51.701Z,10.1
2017-08-15T01:06:53.353Z,10.4
2017-08-15T01:07:55.010Z,9.3
2017-08-15T01:08:56.669Z,13.6
2017-08-15T01:09:58.326Z,11.1
2017-08-15T01:10:59.991Z,10.2
2017-08-15T01:12:01.644Z,13.6
2017-08-15T01:13:03.323Z,10.1
2017-08-15T01:14:04.985Z,10.2
2017-08-15T01:15:06.642Z,10.1
2017-08-15T01:16:08.303Z,10.9
2017-08-15T01:17:09.963Z,10.7
2017-08-15T01:18:11.620Z,10.9
2017-08-15T01:19:13.276Z,9.5
2017-08-15T01:20:14.933Z,13.5
2017-08-15T01:21:16.593Z,11.1
2017-08-15T01:22:18.256Z,11.0
2017-08-15T01:23:19.919Z,11.9
2017-08-15T01:24:21.581Z,11.8
2017-08-15T01:25:23.249Z,15.7
2017-08-15T01:26:24.911Z,9.4
2017-08-15T01:27:26.576Z,10.7
2017-08-15T01:28:28.228Z,13.7
2017-08-15T01:29:29.887Z,12.6
2017-08-15T01:30:31.551Z,13.5
2017-08-15T01:31:33.241Z,13.5
2017-08-15T01:32:34.909Z,13.8
2017-08-15T01:33:36.567Z,11.5
2017-08-15T01:34:38.223Z,12.6
2017-08-15T01:35:39.873Z,13.0
2017-08-15T01:36:41.541Z,12.8
2017-08-15T01:37:43.200Z,12.4
2017-08-15T01:38:44.851Z,13.2
2017-08-15T01:39:46.519Z,12.8
2017-08-15T01:40:48.179Z,16.7
2017-08-15T01:41:49.831Z,11.4
2017-08-15T01:42:51.509Z,11.9
2017-08-15T01:43:53.151Z,10.2
2017-08-15T01:44:54.812Z,12.5
2017-08-15T01:45:56.469Z,12.6
2017-08-15T01:46:58.134Z,13.7
2017-08-15T01:47:59.789Z,12.7
2017-08-15T01:49:01.442Z,12.5
2017-08-15T01:50:03.101Z,13.3
2017-08-15T01:51:04.755Z,11.4
2017-08-15T01:52:06.417Z,11.5
2017-08-15T01:53:08.092Z,11.1
2017-08-15T01:54:09.753Z,10.1
2017-08-15T01:55:11.414Z,10.4
2017-08-15T01:56:13.075Z,11.0
2017-08-15T01:57:14.731Z,11.6
2017-08-15T01:58:16.393Z,15.4
2017-08-15T01:59:18.052Z,18.3
2017-08-15T02:00:19.714Z,16.1
2017-08-15T02:01:21.373Z,16.1
2017-08-15T02:02:23.036Z,14.0
2017-08-15T02:03:24.703Z,13.1
2017-08-15T02:04:26.360Z,20.4
2017-08-15T02:05:28.017Z,17.7
2017-08-15T02:06:29.680Z,12.2
2017-08-15T02:07:31.334Z,12.4
2017-08-15T02:08:32.997Z,11.2
2017-08-15T02:09:34.659Z,19.2
2017-08-15T02:10:36.313Z,13.7
2017-08-15T02:11:37.970Z,13.1
2017-08-15T02:12:39.626Z,15.4
2017-08-15T02:13:41.287Z,13.5
2017-08-15T02:14:42.971Z,15.0
2017-08-15T02:15:44.614Z,14.9
2017-08-15T02:16:46.269Z,16.7
2017-08-15T02:17:47.927Z,13.5
2017-08-15T02:18:49.590Z,12.6
2017-08-15T02:19:51.253Z,14.0
2017-08-15T02:20:52.920Z,15.8
2017-08-15T02:21:54.589Z,15.7
2017-08-15T02:22:56.250Z,14.8
2017-08-15T02:23:57.931Z,17.2
2017-08-15T02:24:59.588Z,20.1
2017-08-15T02:26:01.252Z,19.2
2017-08-15T02:27:02.906Z,15.9
2017-08-15T02:28:04.567Z,14.5
2017-08-15T02:29:06.229Z,16.8
2017-08-15T02:30:07.898Z,15.3
2017-08-15T02:31:09.550Z,13.3
2017-08-15T02:32:11.205Z,14.2
2017-08-15T02:33:12.878Z,13.8
2017-08-15T02:34:14.538Z,16.8
2017-08-15T02:35:16.212Z,14.9
2017-08-15T02:36:17.865Z,15.7
2017-08-15T02:37:19.525Z,18.5
2017-08-15T02:38:21.186Z,12.8
2017-08-15T02:39:22.845Z,16.8
2017-08-15T02:40:24.502Z,12.5
2017-08-15T02:41:26.158Z,15.8
2017-08-15T02:42:27.817Z,11.9
2017-08-15T02:43:29.477Z,12.2
2017-08-15T02:44:31.144Z,16.2
2017-08-15T02:45:32.799Z,13.3
2017-08-15T02:46:34.454Z,15.8
2017-08-15T02:47:36.110Z,14.4
2017-08-15T02:48:37.773Z,14.9
2017-08-15T02:49:39.427Z,17.1
2017-08-15T02:50:41.086Z,12.7
2017-08-15T02:51:42.750Z,13.5
2017-08-15T02:52:44.409Z,16.1
2017-08-15T02:53:46.070Z,18.6
2017-08-15T02:54:47.732Z,13.6
2017-08-15T02:55:49.393Z,18.6
2017-08-15T02:56:51.047Z,16.3
2017-08-15T02:57:52.714Z,12.1
2017-08-15T02:58:54.374Z,10.6
2017-08-15T02:59:56.043Z,12.6
2017-08-15T03:00:57.699Z,17.0
2017-08-15T03:01:59.355Z,12.1
2017-08-15T03:03:01.018Z,9.6
2017-08-15T03:04:02.681Z,9.2
2017-08-15T03:05:04.425Z,11.7
2017-08-15T03:06:06.081Z,11.8
2017-08-15T03:07:07.742Z,12.9
2017-08-15T03:08:09.397Z,10.1
2017-08-15T03:09:11.053Z,10.7
2017-08-15T03:10:12.708Z,12.6
2017-08-15T03:11:14.372Z,12.6
2017-08-15T03:12:16.030Z,9.9
2017-08-15T03:13:17.691Z,10.6
2017-08-15T03:14:19.356Z,13.1
2017-08-15T03:15:21.013Z,15.5
2017-08-15T03:16:22.677Z,14.8
2017-08-15T03:17:24.330Z,16.4
2017-08-15T03:18:25.996Z,14.2
2017-08-15T03:19:27.649Z,14.8
2017-08-15T03:20:29.313Z,15.4
2017-08-15T03:21:30.972Z,12.6
2017-08-15T03:22:32.631Z,18.1
2017-08-15T03:23:34.289Z,14.5
2017-08-15T03:24:35.938Z,16.3
2017-08-15T03:25:37.600Z,14.3
2017-08-15T03:26:39.260Z,14.9
2017-08-15T03:27:40.925Z,14.8
2017-08-15T03:28:42.573Z,14.4
2017-08-15T03:29:44.229Z,12.3
2017-08-15T03:30:45.889Z,16.0
2017-08-15T03:31:47.551Z,16.8
2017-08-15T03:32:49.211Z,14.7
2017-08-15T03:33:50.871Z,13.7
2017-08-15T03:34:52.552Z,15.3
2017-08-15T03:35:54.208Z,15.5
2017-08-15T03:36:55.876Z,13.7
2017-08-15T03:37:57.535Z,15.8
2017-08-15T03:38:59.186Z,15.1
2017-08-15T03:40:00.849Z,15.7
2017-08-15T03:41:02.511Z,13.1
2017-08-15T03:42:04.174Z,15.5
2017-08-15T03:43:05.829Z,16.9
2017-08-15T03:44:07.480Z,16.7
2017-08-15T03:45:09.145Z,13.1
2017-08-15T03:46:10.810Z,13.7
2017-08-15T03:47:12.474Z,13.7
2017-08-15T03:48:14.132Z,12.2
2017-08-15T03:49:15.797Z,13.9
2017-08-15T03:50:17.447Z,12.1
2017-08-15T03:51:19.112Z,15.0
2017-08-15T03:52:20.768Z,17.0
2017-08-15T03:53:22.440Z,17.2
2017-08-15T03:54:24.103Z,16.1
2017-08-15T03:55:25.770Z,15.4
2017-08-15T03:56:27.423Z,16.4
2017-08-15T03:57:29.081Z,17.9
2017-08-15T03:58:30.733Z,12.4
2017-08-15T03:59:32.392Z,14.2
2017-08-15T04:00:34.059Z,15.6
2017-08-15T04:01:35.761Z,17.1
2017-08-15T04:02:37.423Z,13.8
2017-08-15T04:03:39.086Z,15.0
2017-08-15T04:04:40.743Z,17.7
2017-08-15T04:05:42.401Z,19.1
2017-08-15T04:06:44.061Z,19.2
2017-08-15T04:07:45.729Z,15.4
2017-08-15T04:08:47.398Z,14.7
2017-08-15T04:09:49.088Z,13.7
2017-08-15T04:10:50.756Z,13.7
2017-08-15T04:11:52.416Z,14.4
2017-08-15T04:12:54.084Z,19.8
2017-08-15T04:13:55.752Z,16.5
2017-08-15T04:14:57.414Z,14.9
2017-08-15T04:15:59.076Z,13.0
2017-08-15T04:17:00.737Z,16.4
2017-08-15T04:18:02.403Z,16.4
2017-08-15T04:19:04.059Z,16.5
2017-08-15T04:20:05.724Z,14.7
2017-08-15T04:21:07.381Z,13.3
2017-08-15T04:22:09.039Z,12.0
2017-08-15T04:23:10.699Z,11.3
2017-08-15T04:24:12.366Z,13.6
2017-08-15T04:25:14.032Z,15.4
2017-08-15T04:26:15.694Z,13.0
2017-08-15T04:27:17.357Z,14.2
2017-08-15T04:28:19.018Z,12.5
2017-08-15T04:29:20.686Z,13.0
2017-08-15T04:30:22.357Z,14.7
2017-08-15T04:31:24.015Z,15.8
2017-08-15T04:32:25.678Z,15.2
2017-08-15T04:33:27.338Z,18.0
2017-08-15T04:34:28.992Z,11.7
2017-08-15T04:35:30.655Z,13.6
2017-08-15T04:36:32.320Z,12.8
2017-08-15T04:37:33.986Z,12.5
2017-08-15T04:38:35.645Z,14.4
2017-08-15T04:39:37.316Z,15.4
2017-08-15T04:40:38.976Z,17.5
2017-08-15T04:41:40.635Z,16.8
2017-08-15T04:42:42.298Z,16.4
2017-08-15T04:43:43.958Z,19.2
2017-08-15T04:44:45.623Z,15.9
2017-08-15T04:45:47.283Z,14.0
2017-08-15T04:46:48.948Z,14.9
2017-08-15T04:47:50.608Z,14.5
2017-08-15T04:48:52.268Z,13.4
2017-08-15T04:49:53.934Z,13.4
2017-08-15T04:50:55.594Z,19.8
2017-08-15T04:51:57.265Z,12.4
2017-08-15T04:52:58.936Z,11.9
2017-08-15T04:54:00.601Z,12.9
2017-08-15T04:55:02.267Z,13.8
2017-08-15T04:56:03.936Z,19.3
2017-08-15T04:57:05.612Z,19.5
2017-08-15T04:58:07.266Z,15.0
2017-08-15T04:59:08.935Z,13.5
2017-08-15T05:00:10.595Z,12.5
2017-08-15T05:01:12.255Z,12.5
2017-08-15T05:02:13.912Z,12.4
2017-08-15T05:03:15.600Z,13.4
2017-08-15T05:04:17.285Z,12.2
2017-08-15T05:05:18.926Z,15.2
2017-08-15T05:06:20.591Z,14.4
2017-08-15T05:07:22.260Z,13.6
2017-08-15T05:08:23.922Z,12.4
2017-08-15T05:09:25.590Z,13.2
2017-08-15T05:10:27.252Z,17.6
2017-08-15T05:11:28.914Z,15.3
2017-08-15T05:12:30.582Z,19.6
2017-08-15T05:13:32.247Z,15.3
2017-08-15T05:14:33.916Z,13.5
2017-08-15T05:15:35.585Z,13.8
2017-08-15T05:16:37.244Z,15.3
2017-08-15T05:17:38.908Z,14.7
2017-08-15T05:18:40.573Z,10.9
2017-08-15T05:19:42.240Z,12.4
2017-08-15T05:20:43.897Z,11.5
2017-08-15T05:21:45.563Z,11.1
2017-08-15T05:22:47.230Z,10.6
2017-08-15T05:23:48.889Z,11.5
2017-08-15T05:24:50.550Z,10.2
2017-08-15T05:25:52.217Z,10.7
2017-08-15T05:26:53.878Z,7.7
2017-08-15T05:27:55.559Z,8.7
2017-08-15T05:28:57.233Z,8.3
2017-08-15T05:29:58.898Z,6.4
2017-08-15T05:31:00.566Z,8.6
2017-08-15T05:32:02.240Z,7.5
2017-08-15T05:33:03.902Z,6.8
2017-08-15T05:34:05.571Z,8.9
2017-08-15T05:35:07.239Z,6.9
2017-08-15T05:36:08.905Z,9.0
2017-08-15T05:37:10.579Z,7.2
2017-08-15T05:38:12.241Z,7.2
2017-08-15T05:39:13.910Z,8.6
2017-08-15T05:40:15.562Z,7.0
2017-08-15T05:41:17.259Z,7.9
2017-08-15T05:42:18.948Z,6.5
2017-08-15T05:43:20.620Z,6.0
2017-08-15T05:44:22.283Z,6.6
2017-08-15T05:45:23.950Z,7.6
2017-08-15T05:46:25.630Z,6.4
2017-08-15T05:47:27.296Z,7.1
2017-08-15T05:48:28.962Z,7.9
2017-08-15T05:49:30.625Z,7.3
2017-08-15T05:50:32.290Z,7.7
2017-08-15T05:51:33.953Z,6.6
2017-08-15T05:52:35.622Z,9.4
2017-08-15T05:53:37.289Z,6.4
2017-08-15T05:54:38.963Z,8.6
2017-08-15T05:55:40.629Z,8.7
2017-08-15T05:56:42.303Z,10.3
2017-08-15T05:57:43.976Z,8.1
2017-08-15T05:58:45.646Z,8.2
2017-08-15T05:59:47.312Z,8.8
2017-08-15T06:00:48.986Z,7.3
2017-08-15T06:01:50.653Z,7.2
2017-08-15T06:02:52.314Z,8.9
2017-08-15T06:03:53.988Z,8.6
2017-08-15T06:04:55.662Z,6.8
2017-08-15T06:05:57.337Z,9.5
2017-08-15T06:06:59.001Z,6.6
2017-08-15T06:08:00.666Z,6.1
2017-08-15T06:09:02.340Z,9.0
2017-08-15T06:10:04.002Z,7.3
2017-08-15T06:11:05.701Z,7.5
2017-08-15T06:12:07.342Z,7.3
2017-08-15T06:13:09.015Z,6.3
2017-08-15T06:14:10.685Z,6.7
2017-08-15T06:15:12.355Z,6.3
2017-08-15T06:16:14.028Z,11.2
2017-08-15T06:17:15.700Z,8.1
2017-08-15T06:18:17.372Z,6.2
2017-08-15T06:19:19.039Z,6.2
2017-08-15T06:20:20.711Z,6.4
2017-08-15T06:21:22.379Z,8.4
2017-08-15T06:22:24.047Z,8.2
2017-08-15T06:23:25.715Z,5.7
2017-08-15T06:24:27.388Z,6.5
2017-08-15T06:25:29.058Z,6.8
2017-08-15T06:26:30.744Z,7.7
2017-08-15T06:27:32.417Z,6.5
2017-08-15T06:28:34.086Z,7.4
2017-08-15T06:29:35.757Z,6.6
2017-08-15T06:30:37.429Z,7.5
2017-08-15T06:31:39.099Z,10.0
2017-08-15T06:32:40.784Z,7.6
2017-08-15T06:33:42.454Z,5.7
2017-08-15T06:34:44.142Z,5.8
2017-08-15T06:35:45.812Z,6.3
2017-08-15T06:36:47.479Z,6.0
2017-08-15T06:37:49.414Z,5.5
2017-08-15T06:38:51.088Z,7.3
2017-08-15T06:39:52.759Z,7.4
2017-08-15T06:40:54.436Z,7.4
2017-08-15T06:41:56.103Z,5.5
2017-08-15T06:42:57.788Z,5.9
2017-08-15T06:43:59.455Z,7.3
2017-08-15T06:45:01.124Z,5.7
2017-08-15T06:46:02.801Z,5.7
2017-08-15T06:47:04.466Z,6.7
2017-08-15T06:48:06.144Z,7.5
2017-08-15T06:49:07.864Z,7.8
2017-08-15T06:50:09.528Z,4.5
2017-08-15T06:51:11.198Z,4.4
2017-08-15T06:52:12.882Z,6.5
2017-08-15T06:53:14.549Z,5.7
2017-08-15T06:54:16.243Z,4.3
2017-08-15T06:55:17.923Z,4.2
2017-08-15T06:56:19.605Z,7.1
2017-08-15T06:57:21.279Z,4.7
2017-08-15T06:58:22.958Z,5.4
2017-08-15T06:59:24.634Z,7.2
2017-08-15T07:00:26.311Z,5.7
2017-08-15T07:01:27.988Z,6.6
2017-08-15T07:02:29.660Z,4.7
2017-08-15T07:03:31.334Z,7.3
2017-08-15T07:04:33.007Z,6.6
2017-08-15T07:05:34.678Z,4.3
2017-08-15T07:06:36.359Z,5.1
2017-08-15T07:07:38.027Z,4.2
2017-08-15T07:08:39.782Z,6.6
2017-08-15T07:09:41.461Z,6.1
2017-08-15T07:10:43.137Z,5.6
2017-08-15T07:11:44.806Z,6.1
2017-08-15T07:12:46.486Z,5.0
2017-08-15T07:13:48.164Z,6.4
2017-08-15T07:14:49.822Z,6.0
2017-08-15T07:15:51.502Z,5.9
2017-08-15T07:16:53.174Z,6.8
2017-08-15T07:17:54.891Z,6.3
2017-08-15T07:18:56.564Z,5.1
2017-08-15T07:19:58.235Z,5.6
2017-08-15T07:20:59.905Z,5.1
2017-08-15T07:22:01.584Z,6.7
2017-08-15T07:23:03.257Z,6.0
2017-08-15T07:24:04.937Z,4.7
2017-08-15T07:25:06.616Z,7.6
2017-08-15T07:26:08.284Z,4.9
2017-08-15T07:27:10.014Z,7.4
2017-08-15T07:28:11.718Z,4.1
2017-08-15T07:29:13.398Z,3.8
2017-08-15T07:30:15.076Z,5.0
2017-08-15T07:31:16.757Z,7.0
2017-08-15T07:32:18.437Z,4.5
2017-08-15T07:33:20.163Z,6.1
2017-08-15T07:34:21.842Z,4.8
2017-08-15T07:35:23.511Z,6.0
2017-08-15T07:36:25.188Z,4.9
2017-08-15T07:37:26.875Z,4.9
2017-08-15T07:38:28.549Z,5.1
2017-08-15T07:39:30.234Z,4.6
2017-08-15T07:40:31.909Z,4.3
2017-08-15T07:41:33.582Z,8.1
2017-08-15T07:42:35.262Z,4.4
2017-08-15T07:43:36.938Z,5.9
2017-08-15T07:44:38.610Z,5.5
2017-08-15T07:45:40.296Z,5.0
2017-08-15T07:46:42.017Z,6.3
2017-08-15T07:47:43.693Z,5.8
2017-08-15T07:48:45.373Z,4.6
2017-08-15T07:49:47.065Z,4.8
2017-08-15T07:50:48.753Z,5.8
2017-08-15T07:51:50.432Z,6.6
2017-08-15T07:52:52.115Z,4.3
2017-08-15T07:53:53.796Z,4.9
2017-08-15T07:54:55.472Z,3.9
2017-08-15T07:55:57.153Z,3.9
2017-08-15T07:56:58.830Z,3.2
2017-08-15T07:58:00.515Z,3.4
2017-08-15T07:59:02.197Z,3.7
2017-08-15T08:00:03.881Z,4.1
2017-08-15T08:01:05.567Z,3.6
2017-08-15T08:02:07.245Z,4.8
2017-08-15T08:03:08.928Z,5.2
2017-08-15T08:04:10.607Z,3.6
2017-08-15T08:05:12.285Z,4.8
2017-08-15T08:06:13.967Z,3.6
2017-08-15T08:07:15.653Z,4.0
2017-08-15T08:08:17.337Z,5.3
2017-08-15T08:09:19.019Z,4.6
2017-08-15T08:10:20.703Z,3.9
2017-08-15T08:11:22.378Z,5.5
2017-08-15T08:12:24.068Z,4.5
2017-08-15T08:13:25.746Z,3.7
2017-08-15T08:14:27.426Z,3.6
2017-08-15T08:15:29.108Z,5.9
2017-08-15T08:16:30.787Z,4.5
2017-08-15T08:17:32.469Z,3.8
2017-08-15T08:18:34.147Z,4.5
2017-08-15T08:19:35.828Z,3.9
2017-08-15T08:20:37.546Z,3.5
2017-08-15T08:21:39.225Z,7.3
2017-08-15T08:22:40.919Z,6.9
2017-08-15T08:23:42.604Z,4.6
2017-08-15T08:24:44.287Z,4.0
2017-08-15T08:25:45.959Z,3.4
2017-08-15T08:26:47.639Z,3.8
2017-08-15T08:27:49.320Z,5.5
2017-08-15T08:28:51.002Z,3.1
2017-08-15T08:29:52.688Z,3.9
2017-08-15T08:30:54.377Z,3.6
2017-08-15T08:31:56.055Z,3.7
2017-08-15T08:32:57.728Z,3.6
2017-08-15T08:33:59.403Z,7.1
2017-08-15T08:35:01.090Z,4.0
2017-08-15T08:36:02.766Z,4.6
2017-08-15T08:37:04.450Z,4.2
2017-08-15T08:38:06.203Z,4.1
2017-08-15T08:39:07.879Z,3.4
2017-08-15T08:40:09.554Z,3.4
2017-08-15T08:41:11.245Z,3.9
2017-08-15T08:42:12.921Z,5.0
2017-08-15T08:43:14.603Z,5.7
2017-08-15T08:44:16.274Z,4.4
2017-08-15T08:45:17.952Z,4.8
2017-08-15T08:46:19.629Z,4.7
2017-08-15T08:47:21.322Z,4.3
2017-08-15T08:48:22.999Z,5.0
2017-08-15T08:49:24.675Z,3.6
2017-08-15T08:50:26.352Z,6.3
2017-08-15T08:51:28.042Z,5.5
2017-08-15T08:52:29.721Z,5.2
2017-08-15T08:53:31.403Z,4.7
2017-08-15T08:54:33.087Z,3.9
2017-08-15T08:55:34.765Z,4.8
2017-08-15T08:56:36.460Z,4.3
2017-08-15T08:57:38.135Z,5.6
2017-08-15T08:58:39.816Z,5.6
2017-08-15T08:59:41.482Z,5.5
2017-08-15T09:00:43.154Z,4.7
2017-08-15T09:01:44.841Z,4.5
2017-08-15T09:02:46.513Z,3.5
2017-08-15T09:03:48.199Z,6.3
2017-08-15T09:04:49.875Z,3.7
2017-08-15T09:05:51.579Z,3.7
2017-08-15T09:06:53.254Z,3.9
2017-08-15T09:07:54.938Z,5.4
2017-08-15T09:08:56.622Z,3.4
2017-08-15T09:09:58.294Z,4.0
2017-08-15T09:10:59.976Z,4.0
2017-08-15T09:12:01.662Z,3.4
2017-08-15T09:13:03.339Z,4.1
2017-08-15T09:14:05.013Z,4.9
2017-08-15T09:15:06.690Z,4.6
2017-08-15T09:16:08.371Z,4.0
2017-08-15T09:17:10.051Z,8.5
2017-08-15T09:18:11.730Z,5.8
2017-08-15T09:19:13.408Z,6.9
2017-08-15T09:20:15.101Z,3.9
2017-08-15T09:21:16.793Z,5.3
2017-08-15T09:22:18.467Z,5.2
2017-08-15T09:23:20.147Z,4.2
2017-08-15T09:24:21.836Z,4.0
2017-08-15T09:25:23.513Z,4.6
2017-08-15T09:26:25.214Z,4.6
2017-08-15T09:27:26.899Z,4.3
2017-08-15T09:28:28.575Z,4.0
2017-08-15T09:29:30.262Z,3.7
2017-08-15T09:30:31.934Z,6.5
2017-08-15T09:31:33.622Z,4.0
2017-08-15T09:32:35.309Z,4.3
2017-08-15T09:33:36.987Z,5.2
2017-08-15T09:34:38.677Z,3.8
2017-08-15T09:35:40.352Z,4.4
2017-08-15T09:36:42.029Z,6.2
2017-08-15T09:37:43.711Z,4.4
2017-08-15T09:38:45.420Z,5.3
2017-08-15T09:39:47.104Z,4.8
2017-08-15T09:40:48.787Z,5.6
2017-08-15T09:41:50.479Z,5.8
2017-08-15T09:42:52.157Z,4.9
2017-08-15T09:43:53.841Z,5.4
2017-08-15T09:44:55.516Z,4.8
2017-08-15T09:45:57.199Z,6.8
2017-08-15T09:46:58.876Z,6.9
2017-08-15T09:48:00.559Z,5.4
2017-08-15T09:49:02.244Z,4.2
2017-08-15T09:50:03.927Z,4.5
2017-08-15T09:51:05.605Z,5.8
2017-08-15T09:52:07.286Z,4.5
2017-08-15T09:53:08.964Z,6.8
2017-08-15T09:54:10.635Z,7.3
2017-08-15T09:55:12.307Z,5.2
2017-08-15T09:56:13.991Z,4.6
2017-08-15T09:57:15.661Z,7.7
2017-08-15T09:58:17.333Z,6.0
2017-08-15T09:59:19.005Z,8.5
2017-08-15T10:00:20.692Z,9.6
2017-08-15T10:01:22.366Z,9.5
2017-08-15T10:02:24.048Z,7.7
2017-08-15T10:03:25.726Z,7.9
2017-08-15T10:04:27.439Z,5.3
2017-08-15T10:05:29.110Z,6.9
2017-08-15T10:06:30.785Z,5.6
2017-08-15T10:07:32.463Z,7.0
2017-08-15T10:08:34.137Z,6.4
2017-08-15T10:09:35.855Z,7.8
2017-08-15T10:10:37.547Z,5.9
2017-08-15T10:11:39.220Z,7.6
2017-08-15T10:12:40.899Z,7.0
2017-08-15T10:13:42.573Z,6.2
2017-08-15T10:14:44.251Z,5.5
2017-08-15T10:15:45.942Z,5.0
2017-08-15T10:16:47.624Z,6.1
2017-08-15T10:17:49.298Z,6.8
2017-08-15T10:18:50.971Z,7.0
2017-08-15T10:19:52.638Z,8.0
2017-08-15T10:20:54.313Z,5.5
2017-08-15T10:21:55.994Z,8.6
2017-08-15T10:22:57.666Z,6.9
2017-08-15T10:23:59.353Z,4.6
2017-08-15T10:25:01.028Z,9.4
2017-08-15T10:26:02.810Z,5.3
2017-08-15T10:27:04.493Z,5.3
2017-08-15T10:28:06.173Z,4.6
2017-08-15T10:29:07.844Z,8.4
2017-08-15T10:30:09.532Z,6.7
2017-08-15T10:31:11.202Z,4.9
2017-08-15T10:32:12.879Z,10.2
2017-08-15T10:33:14.560Z,4.0
2017-08-15T10:34:16.237Z,5.1
2017-08-15T10:35:17.917Z,3.8
2017-08-15T10:36:19.589Z,5.6
2017-08-15T10:37:21.267Z,5.3
2017-08-15T10:38:22.946Z,4.8
2017-08-15T10:39:24.624Z,5.1
2017-08-15T10:40:26.296Z,4.0
2017-08-15T10:41:27.983Z,4.2
2017-08-15T10:42:29.669Z,4.3
2017-08-15T10:43:31.338Z,4.7
2017-08-15T10:44:33.017Z,6.6
2017-08-15T10:45:34.695Z,4.5
2017-08-15T10:46:36.374Z,3.5
2017-08-15T10:47:38.072Z,4.5
2017-08-15T10:48:39.735Z,3.8
2017-08-15T10:49:41.413Z,4.9
2017-08-15T10:50:43.084Z,4.5
2017-08-15T10:51:44.764Z,4.4
2017-08-15T10:52:46.436Z,5.0
2017-08-15T10:53:48.120Z,4.0
2017-08-15T10:54:49.786Z,5.8
2017-08-15T10:55:51.457Z,4.8
2017-08-15T10:56:53.142Z,4.0
2017-08-15T10:57:54.813Z,7.3
2017-08-15T10:58:56.582Z,4.5
2017-08-15T10:59:58.253Z,4.9
2017-08-15T11:00:59.943Z,4.2
2017-08-15T11:02:01.613Z,4.8
2017-08-15T11:03:03.282Z,5.7
2017-08-15T11:04:04.961Z,6.0
2017-08-15T11:05:06.637Z,5.4
2017-08-15T11:06:08.309Z,5.9
2017-08-15T11:07:09.977Z,6.7
2017-08-15T11:08:11.654Z,6.7
2017-08-15T11:09:13.341Z,6.0
2017-08-15T11:10:15.012Z,5.9
2017-08-15T11:11:16.678Z,5.3
2017-08-15T11:12:18.349Z,5.9
2017-08-15T11:13:20.027Z,7.6
2017-08-15T11:14:21.725Z,7.1
2017-08-15T11:15:23.408Z,6.7
2017-08-15T11:16:25.082Z,7.1
2017-08-15T11:17:26.761Z,8.1
2017-08-15T11:18:28.471Z,8.7
2017-08-15T11:19:30.142Z,4.9
2017-08-15T11:20:31.838Z,5.9
2017-08-15T11:21:33.510Z,6.9
2017-08-15T11:22:35.182Z,5.5
2017-08-15T11:23:36.855Z,5.3
2017-08-15T11:24:38.528Z,5.3
2017-08-15T11:25:40.201Z,8.2
2017-08-15T11:26:41.882Z,6.3
2017-08-15T11:27:43.615Z,7.1
2017-08-15T11:28:45.306Z,5.1
2017-08-15T11:29:46.959Z,5.1
2017-08-15T11:30:48.626Z,5.5
2017-08-15T11:31:50.290Z,6.3
2017-08-15T11:32:51.960Z,5.4
2017-08-15T11:33:53.623Z,6.3
2017-08-15T11:34:55.348Z,9.0
2017-08-15T11:35:57.039Z,5.7
2017-08-15T11:36:58.694Z,7.0
2017-08-15T11:38:00.361Z,7.4
2017-08-15T11:39:02.041Z,7.6
2017-08-15T11:40:03.708Z,8.5
2017-08-15T11:41:05.384Z,6.5
2017-08-15T11:42:07.056Z,5.6
2017-08-15T11:43:08.733Z,4.8
2017-08-15T11:44:10.401Z,4.0
2017-08-15T11:45:12.069Z,4.5
2017-08-15T11:46:13.737Z,7.2
2017-08-15T11:47:15.404Z,6.8
2017-08-15T11:48:17.073Z,5.3
2017-08-15T11:49:18.744Z,5.4
2017-08-15T11:50:20.423Z,7.2
2017-08-15T11:51:22.090Z,7.4
2017-08-15T11:52:23.762Z,4.7
2017-08-15T11:53:25.425Z,8.4
2017-08-15T11:54:27.094Z,7.9
2017-08-15T11:55:28.764Z,9.5
2017-08-15T11:56:30.440Z,5.3
2017-08-15T11:57:32.117Z,6.0
2017-08-15T11:58:33.801Z,8.4
2017-08-15T11:59:35.480Z,10.6
2017-08-15T12:00:37.155Z,9.7
2017-08-15T12:01:38.827Z,9.0
2017-08-15T12:02:40.511Z,13.0
2017-08-15T12:03:42.175Z,9.0
2017-08-15T12:04:43.855Z,8.6
2017-08-15T12:05:45.535Z,7.4
2017-08-15T12:06:47.249Z,7.9
2017-08-15T12:07:48.902Z,5.7
2017-08-15T12:08:50.576Z,5.7
2017-08-15T12:09:52.265Z,5.6
2017-08-15T12:10:53.943Z,5.3
2017-08-15T12:11:55.610Z,7.8
2017-08-15T12:12:57.288Z,6.6
2017-08-15T12:13:58.968Z,6.4
2017-08-15T12:15:00.639Z,5.7
2017-08-15T12:16:02.320Z,6.6
2017-08-15T12:17:03.987Z,6.0
2017-08-15T12:18:05.656Z,5.3
2017-08-15T12:19:07.332Z,6.7
2017-08-15T12:20:09.013Z,5.4
2017-08-15T12:21:10.686Z,5.8
2017-08-15T12:22:12.351Z,6.9
2017-08-15T12:23:14.017Z,6.0
2017-08-15T12:24:15.691Z,6.5
2017-08-15T12:25:17.361Z,5.8
2017-08-15T12:26:19.038Z,5.0
2017-08-15T12:27:20.727Z,6.1
2017-08-15T12:28:22.406Z,6.3
2017-08-15T12:29:24.083Z,4.4
2017-08-15T12:30:25.760Z,4.7
2017-08-15T12:31:27.428Z,4.1
2017-08-15T12:32:29.109Z,4.4
2017-08-15T12:33:30.778Z,5.0
2017-08-15T12:34:32.467Z,6.2
2017-08-15T12:35:34.141Z,3.6
2017-08-15T12:36:35.817Z,4.3
2017-08-15T12:37:37.499Z,3.9
2017-08-15T12:38:39.180Z,4.1
2017-08-15T12:39:40.852Z,4.7
2017-08-15T12:40:42.533Z,6.3
2017-08-15T12:41:44.224Z,3.7
2017-08-15T12:42:45.899Z,5.8
2017-08-15T12:43:47.581Z,5.5
2017-08-15T12:44:49.256Z,4.3
2017-08-15T12:45:50.925Z,4.0
2017-08-15T12:46:52.600Z,4.0
2017-08-15T12:47:54.280Z,3.5
2017-08-15T12:48:55.958Z,7.4
2017-08-15T12:49:57.627Z,4.4
2017-08-15T12:50:59.296Z,6.3
2017-08-15T12:52:00.982Z,5.6
2017-08-15T12:53:02.651Z,4.0
2017-08-15T12:54:04.372Z,6.5
2017-08-15T12:55:06.056Z,4.4
2017-08-15T12:56:07.742Z,4.2
2017-08-15T12:57:09.410Z,4.5
2017-08-15T12:58:11.086Z,5.9
2017-08-15T12:59:12.759Z,4.2
2017-08-15T13:00:14.449Z,4.9
2017-08-15T13:01:16.126Z,3.5
2017-08-15T13:02:17.806Z,4.5
2017-08-15T13:03:19.482Z,4.1
2017-08-15T13:04:21.317Z,3.6
2017-08-15T13:05:23.007Z,4.0
2017-08-15T13:06:24.718Z,5.1
2017-08-15T13:07:26.468Z,3.6
2017-08-15T13:08:28.157Z,4.2
2017-08-15T13:09:29.833Z,4.4
2017-08-15T13:10:31.514Z,4.0
2017-08-15T13:11:33.196Z,6.1
2017-08-15T13:12:34.886Z,5.6
2017-08-15T13:13:36.558Z,6.5
2017-08-15T13:14:38.240Z,6.4
2017-08-15T13:15:39.920Z,5.7
2017-08-15T13:16:41.595Z,5.1
2017-08-15T13:17:43.273Z,7.1
2017-08-15T13:18:44.957Z,5.5
2017-08-15T13:19:46.637Z,5.5
2017-08-15T13:20:48.306Z,4.3
2017-08-15T13:21:49.980Z,6.6
2017-08-15T13:22:51.675Z,6.6
2017-08-15T13:23:53.361Z,7.0
2017-08-15T13:24:55.032Z,5.7
2017-08-15T13:25:56.739Z,3.7
2017-08-15T13:26:58.465Z,4.7
2017-08-15T13:28:00.147Z,3.7
2017-08-15T13:29:01.823Z,3.8
2017-08-15T13:30:03.513Z,4.3
2017-08-15T13:31:05.218Z,4.7
2017-08-15T13:32:06.913Z,4.1
2017-08-15T13:33:08.603Z,3.7
2017-08-15T13:34:10.343Z,3.4
2017-08-15T13:35:12.027Z,3.9
2017-08-15T13:36:13.712Z,5.0
2017-08-15T13:37:15.393Z,4.4
2017-08-15T13:38:17.070Z,4.3
2017-08-15T13:39:18.743Z,9.5
2017-08-15T13:40:20.410Z,5.8
2017-08-15T13:41:22.087Z,5.4
2017-08-15T13:42:23.769Z,6.1
2017-08-15T13:43:25.459Z,5.9
2017-08-15T13:44:27.142Z,7.1
2017-08-15T13:45:28.816Z,4.3
2017-08-15T13:46:30.484Z,4.4
2017-08-15T13:47:32.156Z,5.8
2017-08-15T13:48:33.831Z,4.7
2017-08-15T13:49:35.502Z,4.8
2017-08-15T13:50:37.188Z,4.7
2017-08-15T13:51:38.855Z,5.2
2017-08-15T13:52:40.534Z,6.0
2017-08-15T13:53:42.214Z,6.0
2017-08-15T13:54:43.889Z,6.1
2017-08-15T13:55:45.555Z,5.1
2017-08-15T13:56:47.230Z,5.8
2017-08-15T13:57:48.896Z,5.6